sensor_id;sensor_type;location;lat;lon;timestamp;P1;durP1;ratioP1;P2;durP2;ratioP2
64907;SDS011;69061;52.236;5.188;2023-07-13T00:01:49;25.63;;;6.18;;
64907;SDS011;69061;52.236;5.188;2023-07-13T00:04:16;19.75;;;6.22;;
64907;SDS011;69061;52.236;5.188;2023-07-13T00:06:45;25.17;;;6.05;;
64907;SDS011;69061;52.236;5.188;2023-07-13T00:09:12;27.10;;;7.07;;
64907;SDS011;69061;52.236;5.188;2023-07-13T00:11:41;24.52;;;6.88;;
64907;SDS011;69061;52.236;5.188;2023-07-13T00:14:10;21.42;;;6.10;;
64907;SDS011;69061;52.236;5.188;2023-07-13T00:16:39;24.48;;;7.28;;
64907;SDS011;69061;52.236;5.188;2023-07-13T00:19:09;24.77;;;6.90;;
64907;SDS011;69061;52.236;5.188;2023-07-13T00:21:36;19.85;;;5.57;;
64907;SDS011;69061;52.236;5.188;2023-07-13T00:24:04;19.92;;;6.22;;
64907;SDS011;69061;52.236;5.188;2023-07-13T00:26:31;19.95;;;6.30;;
64907;SDS011;69061;52.236;5.188;2023-07-13T00:28:59;21.63;;;7.07;;
64907;SDS011;69061;52.236;5.188;2023-07-13T00:31:26;21.83;;;6.57;;
64907;SDS011;69061;52.236;5.188;2023-07-13T00:33:55;20.50;;;6.38;;
64907;SDS011;69061;52.236;5.188;2023-07-13T00:36:22;26.27;;;6.13;;
64907;SDS011;69061;52.236;5.188;2023-07-13T00:38:49;18.60;;;5.38;;
64907;SDS011;69061;52.236;5.188;2023-07-13T00:41:16;23.42;;;6.07;;
64907;SDS011;69061;52.236;5.188;2023-07-13T00:43:43;16.70;;;5.50;;
64907;SDS011;69061;52.236;5.188;2023-07-13T00:46:12;14.98;;;5.78;;
64907;SDS011;69061;52.236;5.188;2023-07-13T00:48:44;22.55;;;6.20;;
64907;SDS011;69061;52.236;5.188;2023-07-13T00:51:15;16.70;;;5.28;;
64907;SDS011;69061;52.236;5.188;2023-07-13T00:53:44;14.77;;;5.78;;
64907;SDS011;69061;52.236;5.188;2023-07-13T00:56:11;17.58;;;5.10;;
64907;SDS011;69061;52.236;5.188;2023-07-13T00:58:38;16.27;;;6.30;;
64907;SDS011;69061;52.236;5.188;2023-07-13T01:01:05;16.33;;;5.28;;
64907;SDS011;69061;52.236;5.188;2023-07-13T01:03:32;15.07;;;5.38;;
64907;SDS011;69061;52.236;5.188;2023-07-13T01:06:02;18.45;;;6.30;;
64907;SDS011;69061;52.236;5.188;2023-07-13T01:08:32;17.60;;;6.32;;
64907;SDS011;69061;52.236;5.188;2023-07-13T01:10:59;16.23;;;5.85;;
64907;SDS011;69061;52.236;5.188;2023-07-13T01:13:26;15.13;;;5.53;;
64907;SDS011;69061;52.236;5.188;2023-07-13T01:15:55;15.23;;;4.90;;
64907;SDS011;69061;52.236;5.188;2023-07-13T01:18:25;15.90;;;5.55;;
64907;SDS011;69061;52.236;5.188;2023-07-13T01:20:56;14.65;;;5.30;;
64907;SDS011;69061;52.236;5.188;2023-07-13T01:23:24;21.83;;;4.93;;
64907;SDS011;69061;52.236;5.188;2023-07-13T01:25:52;12.82;;;5.07;;
64907;SDS011;69061;52.236;5.188;2023-07-13T01:28:20;13.00;;;5.35;;
64907;SDS011;69061;52.236;5.188;2023-07-13T01:30:48;15.10;;;5.35;;
64907;SDS011;69061;52.236;5.188;2023-07-13T01:33:16;15.23;;;5.88;;
64907;SDS011;69061;52.236;5.188;2023-07-13T01:35:44;13.40;;;5.35;;
64907;SDS011;69061;52.236;5.188;2023-07-13T01:38:14;19.50;;;5.60;;
64907;SDS011;69061;52.236;5.188;2023-07-13T01:40:42;12.68;;;5.20;;
64907;SDS011;69061;52.236;5.188;2023-07-13T01:43:09;15.98;;;5.25;;
64907;SDS011;69061;52.236;5.188;2023-07-13T01:45:36;13.43;;;5.22;;
64907;SDS011;69061;52.236;5.188;2023-07-13T01:48:04;19.98;;;5.30;;
64907;SDS011;69061;52.236;5.188;2023-07-13T01:50:32;14.90;;;4.93;;
64907;SDS011;69061;52.236;5.188;2023-07-13T01:52:59;15.13;;;4.35;;
64907;SDS011;69061;52.236;5.188;2023-07-13T01:55:28;12.68;;;4.93;;
64907;SDS011;69061;52.236;5.188;2023-07-13T01:57:55;19.52;;;6.60;;
64907;SDS011;69061;52.236;5.188;2023-07-13T02:00:22;16.23;;;5.88;;
64907;SDS011;69061;52.236;5.188;2023-07-13T02:02:49;14.18;;;5.25;;
64907;SDS011;69061;52.236;5.188;2023-07-13T02:05:16;16.23;;;4.95;;
64907;SDS011;69061;52.236;5.188;2023-07-13T02:07:43;16.60;;;5.53;;
64907;SDS011;69061;52.236;5.188;2023-07-13T02:10:11;15.52;;;5.43;;
64907;SDS011;69061;52.236;5.188;2023-07-13T02:12:40;15.10;;;4.80;;
64907;SDS011;69061;52.236;5.188;2023-07-13T02:15:08;20.73;;;5.22;;
64907;SDS011;69061;52.236;5.188;2023-07-13T02:17:36;22.55;;;4.70;;
64907;SDS011;69061;52.236;5.188;2023-07-13T02:20:04;13.52;;;5.45;;
64907;SDS011;69061;52.236;5.188;2023-07-13T02:22:31;12.77;;;4.72;;
64907;SDS011;69061;52.236;5.188;2023-07-13T02:24:58;15.85;;;5.22;;
64907;SDS011;69061;52.236;5.188;2023-07-13T02:27:25;17.88;;;5.45;;
64907;SDS011;69061;52.236;5.188;2023-07-13T02:29:54;19.58;;;5.90;;
64907;SDS011;69061;52.236;5.188;2023-07-13T02:32:22;16.00;;;5.07;;
64907;SDS011;69061;52.236;5.188;2023-07-13T02:34:50;28.58;;;6.72;;
64907;SDS011;69061;52.236;5.188;2023-07-13T02:37:18;18.70;;;6.10;;
64907;SDS011;69061;52.236;5.188;2023-07-13T02:39:46;22.88;;;5.30;;
64907;SDS011;69061;52.236;5.188;2023-07-13T02:42:13;18.00;;;5.85;;
64907;SDS011;69061;52.236;5.188;2023-07-13T02:44:40;17.67;;;6.30;;
64907;SDS011;69061;52.236;5.188;2023-07-13T02:47:09;15.48;;;6.10;;
64907;SDS011;69061;52.236;5.188;2023-07-13T02:49:36;17.35;;;6.90;;
64907;SDS011;69061;52.236;5.188;2023-07-13T02:52:04;21.25;;;5.53;;
64907;SDS011;69061;52.236;5.188;2023-07-13T02:54:31;17.63;;;5.82;;
64907;SDS011;69061;52.236;5.188;2023-07-13T02:56:58;19.20;;;6.88;;
64907;SDS011;69061;52.236;5.188;2023-07-13T02:59:26;20.55;;;5.97;;
64907;SDS011;69061;52.236;5.188;2023-07-13T03:01:53;18.02;;;6.00;;
64907;SDS011;69061;52.236;5.188;2023-07-13T03:04:22;18.98;;;5.35;;
64907;SDS011;69061;52.236;5.188;2023-07-13T03:06:49;13.02;;;5.63;;
64907;SDS011;69061;52.236;5.188;2023-07-13T03:09:16;17.70;;;5.63;;
64907;SDS011;69061;52.236;5.188;2023-07-13T03:11:43;12.52;;;4.82;;
64907;SDS011;69061;52.236;5.188;2023-07-13T03:14:10;14.32;;;5.82;;
64907;SDS011;69061;52.236;5.188;2023-07-13T03:16:37;15.23;;;4.55;;
64907;SDS011;69061;52.236;5.188;2023-07-13T03:19:04;16.13;;;4.63;;
64907;SDS011;69061;52.236;5.188;2023-07-13T03:21:33;13.35;;;4.50;;
64907;SDS011;69061;52.236;5.188;2023-07-13T03:24:00;9.00;;;3.85;;
64907;SDS011;69061;52.236;5.188;2023-07-13T03:26:27;13.05;;;4.15;;
64907;SDS011;69061;52.236;5.188;2023-07-13T03:28:54;9.50;;;3.97;;
64907;SDS011;69061;52.236;5.188;2023-07-13T03:31:22;14.38;;;4.38;;
64907;SDS011;69061;52.236;5.188;2023-07-13T03:33:50;11.77;;;4.03;;
64907;SDS011;69061;52.236;5.188;2023-07-13T03:36:19;9.05;;;4.13;;
64907;SDS011;69061;52.236;5.188;2023-07-13T03:38:50;13.48;;;4.93;;
64907;SDS011;69061;52.236;5.188;2023-07-13T03:41:19;10.35;;;4.25;;
64907;SDS011;69061;52.236;5.188;2023-07-13T03:43:47;18.15;;;4.18;;
64907;SDS011;69061;52.236;5.188;2023-07-13T03:46:14;15.23;;;4.30;;
64907;SDS011;69061;52.236;5.188;2023-07-13T03:48:42;11.70;;;4.85;;
64907;SDS011;69061;52.236;5.188;2023-07-13T03:51:09;16.70;;;5.20;;
64907;SDS011;69061;52.236;5.188;2023-07-13T03:53:38;12.38;;;4.80;;
64907;SDS011;69061;52.236;5.188;2023-07-13T03:56:08;14.07;;;5.15;;
64907;SDS011;69061;52.236;5.188;2023-07-13T03:58:36;17.27;;;6.53;;
64907;SDS011;69061;52.236;5.188;2023-07-13T04:01:05;9.23;;;4.60;;
64907;SDS011;69061;52.236;5.188;2023-07-13T04:03:34;14.02;;;4.63;;
64907;SDS011;69061;52.236;5.188;2023-07-13T04:06:02;16.95;;;5.28;;
64907;SDS011;69061;52.236;5.188;2023-07-13T04:08:31;15.63;;;5.22;;
64907;SDS011;69061;52.236;5.188;2023-07-13T04:10:59;18.60;;;5.40;;
64907;SDS011;69061;52.236;5.188;2023-07-13T04:13:29;15.80;;;5.47;;
64907;SDS011;69061;52.236;5.188;2023-07-13T04:15:57;19.90;;;5.57;;
64907;SDS011;69061;52.236;5.188;2023-07-13T04:18:23;14.93;;;5.55;;
64907;SDS011;69061;52.236;5.188;2023-07-13T04:20:51;20.83;;;6.40;;
64907;SDS011;69061;52.236;5.188;2023-07-13T04:23:18;18.92;;;4.95;;
64907;SDS011;69061;52.236;5.188;2023-07-13T04:25:45;20.88;;;5.93;;
64907;SDS011;69061;52.236;5.188;2023-07-13T04:28:14;18.08;;;5.50;;
64907;SDS011;69061;52.236;5.188;2023-07-13T04:30:42;14.65;;;5.40;;
64907;SDS011;69061;52.236;5.188;2023-07-13T04:33:09;16.92;;;5.18;;
64907;SDS011;69061;52.236;5.188;2023-07-13T04:35:37;15.48;;;4.78;;
64907;SDS011;69061;52.236;5.188;2023-07-13T04:38:03;18.92;;;6.00;;
64907;SDS011;69061;52.236;5.188;2023-07-13T04:40:30;17.95;;;5.15;;
64907;SDS011;69061;52.236;5.188;2023-07-13T04:42:58;18.30;;;5.90;;
64907;SDS011;69061;52.236;5.188;2023-07-13T04:45:25;17.48;;;5.03;;
64907;SDS011;69061;52.236;5.188;2023-07-13T04:47:53;28.17;;;6.45;;
64907;SDS011;69061;52.236;5.188;2023-07-13T04:50:20;16.20;;;6.53;;
64907;SDS011;69061;52.236;5.188;2023-07-13T04:52:48;15.32;;;5.60;;
64907;SDS011;69061;52.236;5.188;2023-07-13T04:55:16;15.73;;;5.57;;
64907;SDS011;69061;52.236;5.188;2023-07-13T04:57:43;19.13;;;6.40;;
64907;SDS011;69061;52.236;5.188;2023-07-13T05:00:11;22.52;;;5.53;;
64907;SDS011;69061;52.236;5.188;2023-07-13T05:02:40;16.20;;;6.22;;
64907;SDS011;69061;52.236;5.188;2023-07-13T05:05:12;27.60;;;7.60;;
64907;SDS011;69061;52.236;5.188;2023-07-13T05:07:39;20.08;;;6.40;;
64907;SDS011;69061;52.236;5.188;2023-07-13T05:10:07;13.98;;;5.50;;
64907;SDS011;69061;52.236;5.188;2023-07-13T05:12:35;15.57;;;6.85;;
64907;SDS011;69061;52.236;5.188;2023-07-13T05:15:03;17.13;;;6.43;;
64907;SDS011;69061;52.236;5.188;2023-07-13T05:17:30;21.58;;;6.65;;
64907;SDS011;69061;52.236;5.188;2023-07-13T05:19:57;17.85;;;6.93;;
64907;SDS011;69061;52.236;5.188;2023-07-13T05:22:25;24.95;;;7.85;;
64907;SDS011;69061;52.236;5.188;2023-07-13T05:24:52;23.67;;;6.55;;
64907;SDS011;69061;52.236;5.188;2023-07-13T05:27:20;30.52;;;6.63;;
64907;SDS011;69061;52.236;5.188;2023-07-13T05:29:47;20.40;;;6.78;;
64907;SDS011;69061;52.236;5.188;2023-07-13T05:32:14;26.98;;;8.73;;
64907;SDS011;69061;52.236;5.188;2023-07-13T05:34:41;17.85;;;7.18;;
64907;SDS011;69061;52.236;5.188;2023-07-13T05:37:08;28.52;;;8.85;;
64907;SDS011;69061;52.236;5.188;2023-07-13T05:39:37;24.15;;;7.60;;
64907;SDS011;69061;52.236;5.188;2023-07-13T05:42:05;30.67;;;7.97;;
64907;SDS011;69061;52.236;5.188;2023-07-13T05:44:32;26.75;;;8.00;;
64907;SDS011;69061;52.236;5.188;2023-07-13T05:46:59;21.17;;;7.75;;
64907;SDS011;69061;52.236;5.188;2023-07-13T05:49:26;24.38;;;7.75;;
64907;SDS011;69061;52.236;5.188;2023-07-13T05:51:55;23.17;;;6.90;;
64907;SDS011;69061;52.236;5.188;2023-07-13T05:54:22;15.52;;;6.53;;
64907;SDS011;69061;52.236;5.188;2023-07-13T05:56:54;22.63;;;7.65;;
64907;SDS011;69061;52.236;5.188;2023-07-13T05:59:21;23.08;;;7.28;;
64907;SDS011;69061;52.236;5.188;2023-07-13T06:01:48;31.75;;;8.05;;
64907;SDS011;69061;52.236;5.188;2023-07-13T06:04:17;19.33;;;7.43;;
64907;SDS011;69061;52.236;5.188;2023-07-13T06:06:44;26.25;;;8.18;;
64907;SDS011;69061;52.236;5.188;2023-07-13T06:09:11;24.67;;;8.38;;
64907;SDS011;69061;52.236;5.188;2023-07-13T06:11:38;23.15;;;7.78;;
64907;SDS011;69061;52.236;5.188;2023-07-13T06:14:07;22.65;;;7.15;;
64907;SDS011;69061;52.236;5.188;2023-07-13T06:16:34;23.17;;;7.05;;
64907;SDS011;69061;52.236;5.188;2023-07-13T06:19:00;19.80;;;6.75;;
64907;SDS011;69061;52.236;5.188;2023-07-13T06:21:27;24.38;;;7.47;;
64907;SDS011;69061;52.236;5.188;2023-07-13T06:23:54;25.25;;;8.25;;
64907;SDS011;69061;52.236;5.188;2023-07-13T06:26:22;21.27;;;8.63;;
64907;SDS011;69061;52.236;5.188;2023-07-13T06:28:49;25.13;;;8.85;;
64907;SDS011;69061;52.236;5.188;2023-07-13T06:31:17;26.10;;;8.57;;
64907;SDS011;69061;52.236;5.188;2023-07-13T06:33:44;28.92;;;9.55;;
64907;SDS011;69061;52.236;5.188;2023-07-13T06:36:11;14.60;;;7.60;;
64907;SDS011;69061;52.236;5.188;2023-07-13T06:38:38;22.42;;;8.20;;
64907;SDS011;69061;52.236;5.188;2023-07-13T06:41:05;23.48;;;8.45;;
64907;SDS011;69061;52.236;5.188;2023-07-13T06:43:33;24.98;;;8.30;;
64907;SDS011;69061;52.236;5.188;2023-07-13T06:46:01;22.00;;;8.90;;
64907;SDS011;69061;52.236;5.188;2023-07-13T06:48:30;22.33;;;8.07;;
64907;SDS011;69061;52.236;5.188;2023-07-13T06:50:57;27.63;;;7.43;;
64907;SDS011;69061;52.236;5.188;2023-07-13T06:53:24;23.33;;;8.35;;
64907;SDS011;69061;52.236;5.188;2023-07-13T06:55:51;29.20;;;7.70;;
64907;SDS011;69061;52.236;5.188;2023-07-13T06:58:18;32.97;;;9.02;;
64907;SDS011;69061;52.236;5.188;2023-07-13T07:00:46;28.33;;;7.40;;
64907;SDS011;69061;52.236;5.188;2023-07-13T07:03:16;24.85;;;7.82;;
64907;SDS011;69061;52.236;5.188;2023-07-13T07:05:44;22.38;;;8.52;;
64907;SDS011;69061;52.236;5.188;2023-07-13T07:08:12;12.18;;;5.97;;
64907;SDS011;69061;52.236;5.188;2023-07-13T07:10:40;15.15;;;6.43;;
64907;SDS011;69061;52.236;5.188;2023-07-13T07:13:07;14.00;;;6.10;;
64907;SDS011;69061;52.236;5.188;2023-07-13T07:15:34;11.07;;;5.22;;
64907;SDS011;69061;52.236;5.188;2023-07-13T07:18:01;13.68;;;5.78;;
64907;SDS011;69061;52.236;5.188;2023-07-13T07:20:28;11.88;;;5.53;;
64907;SDS011;69061;52.236;5.188;2023-07-13T07:22:57;12.55;;;5.55;;
64907;SDS011;69061;52.236;5.188;2023-07-13T07:25:24;13.93;;;5.80;;
64907;SDS011;69061;52.236;5.188;2023-07-13T07:27:51;14.40;;;5.75;;
64907;SDS011;69061;52.236;5.188;2023-07-13T07:30:18;8.50;;;5.57;;
64907;SDS011;69061;52.236;5.188;2023-07-13T07:32:44;9.43;;;4.85;;
64907;SDS011;69061;52.236;5.188;2023-07-13T07:35:11;13.23;;;4.82;;
64907;SDS011;69061;52.236;5.188;2023-07-13T07:37:38;9.38;;;4.47;;
64907;SDS011;69061;52.236;5.188;2023-07-13T07:40:08;8.55;;;4.65;;
64907;SDS011;69061;52.236;5.188;2023-07-13T07:42:35;15.68;;;5.40;;
64907;SDS011;69061;52.236;5.188;2023-07-13T07:45:02;10.10;;;4.28;;
64907;SDS011;69061;52.236;5.188;2023-07-13T07:47:29;8.10;;;4.72;;
64907;SDS011;69061;52.236;5.188;2023-07-13T07:49:57;10.75;;;4.45;;
64907;SDS011;69061;52.236;5.188;2023-07-13T07:52:24;10.30;;;5.57;;
64907;SDS011;69061;52.236;5.188;2023-07-13T07:54:50;8.77;;;5.03;;
64907;SDS011;69061;52.236;5.188;2023-07-13T07:57:19;9.02;;;4.93;;
64907;SDS011;69061;52.236;5.188;2023-07-13T07:59:46;11.95;;;5.00;;
64907;SDS011;69061;52.236;5.188;2023-07-13T08:02:13;9.13;;;5.15;;
64907;SDS011;69061;52.236;5.188;2023-07-13T08:04:40;13.13;;;6.82;;
64907;SDS011;69061;52.236;5.188;2023-07-13T08:07:08;14.75;;;6.38;;
64907;SDS011;69061;52.236;5.188;2023-07-13T08:09:35;14.02;;;6.90;;
64907;SDS011;69061;52.236;5.188;2023-07-13T08:12:03;14.70;;;6.53;;
64907;SDS011;69061;52.236;5.188;2023-07-13T08:14:32;12.07;;;7.00;;
64907;SDS011;69061;52.236;5.188;2023-07-13T08:16:59;16.92;;;7.30;;
64907;SDS011;69061;52.236;5.188;2023-07-13T08:19:26;16.48;;;6.95;;
64907;SDS011;69061;52.236;5.188;2023-07-13T08:21:53;10.73;;;6.03;;
64907;SDS011;69061;52.236;5.188;2023-07-13T08:24:21;15.77;;;7.03;;
64907;SDS011;69061;52.236;5.188;2023-07-13T08:26:49;15.32;;;7.07;;
64907;SDS011;69061;52.236;5.188;2023-07-13T08:29:17;21.15;;;7.53;;
64907;SDS011;69061;52.236;5.188;2023-07-13T08:31:46;16.25;;;7.55;;
64907;SDS011;69061;52.236;5.188;2023-07-13T08:34:12;16.67;;;7.82;;
64907;SDS011;69061;52.236;5.188;2023-07-13T08:36:40;27.67;;;9.25;;
64907;SDS011;69061;52.236;5.188;2023-07-13T08:39:07;15.38;;;7.50;;
64907;SDS011;69061;52.236;5.188;2023-07-13T08:41:34;9.93;;;5.10;;
64907;SDS011;69061;52.236;5.188;2023-07-13T08:44:03;8.90;;;5.50;;
64907;SDS011;69061;52.236;5.188;2023-07-13T08:46:38;7.18;;;4.82;;
64907;SDS011;69061;52.236;5.188;2023-07-13T08:49:11;11.40;;;6.07;;
64907;SDS011;69061;52.236;5.188;2023-07-13T08:51:42;13.57;;;6.45;;
64907;SDS011;69061;52.236;5.188;2023-07-13T08:54:18;9.13;;;5.82;;
64907;SDS011;69061;52.236;5.188;2023-07-13T08:56:48;8.13;;;6.00;;
64907;SDS011;69061;52.236;5.188;2023-07-13T08:59:20;11.63;;;5.45;;
64907;SDS011;69061;52.236;5.188;2023-07-13T09:01:56;8.23;;;5.63;;
64907;SDS011;69061;52.236;5.188;2023-07-13T09:04:34;12.85;;;5.57;;
64907;SDS011;69061;52.236;5.188;2023-07-13T09:07:05;10.10;;;5.47;;
64907;SDS011;69061;52.236;5.188;2023-07-13T09:09:44;9.40;;;4.80;;
64907;SDS011;69061;52.236;5.188;2023-07-13T09:12:27;8.15;;;4.82;;
64907;SDS011;69061;52.236;5.188;2023-07-13T09:15:02;5.55;;;3.95;;
64907;SDS011;69061;52.236;5.188;2023-07-13T09:17:32;8.82;;;4.70;;
64907;SDS011;69061;52.236;5.188;2023-07-13T09:20:04;8.25;;;5.10;;
64907;SDS011;69061;52.236;5.188;2023-07-13T09:22:42;10.88;;;5.18;;
64907;SDS011;69061;52.236;5.188;2023-07-13T09:25:12;9.10;;;5.00;;
64907;SDS011;69061;52.236;5.188;2023-07-13T09:27:52;8.70;;;5.13;;
64907;SDS011;69061;52.236;5.188;2023-07-13T09:30:29;9.35;;;4.65;;
64907;SDS011;69061;52.236;5.188;2023-07-13T09:33:00;10.48;;;5.25;;
64907;SDS011;69061;52.236;5.188;2023-07-13T09:35:28;10.35;;;5.22;;
64907;SDS011;69061;52.236;5.188;2023-07-13T09:37:59;8.82;;;4.75;;
64907;SDS011;69061;52.236;5.188;2023-07-13T09:40:40;9.88;;;5.50;;
64907;SDS011;69061;52.236;5.188;2023-07-13T09:43:13;9.30;;;6.30;;
64907;SDS011;69061;52.236;5.188;2023-07-13T09:45:44;10.65;;;5.60;;
64907;SDS011;69061;52.236;5.188;2023-07-13T09:48:13;12.35;;;5.45;;
64907;SDS011;69061;52.236;5.188;2023-07-13T09:50:43;11.23;;;6.13;;
64907;SDS011;69061;52.236;5.188;2023-07-13T09:53:11;8.55;;;5.50;;
64907;SDS011;69061;52.236;5.188;2023-07-13T09:55:40;9.20;;;5.13;;
64907;SDS011;69061;52.236;5.188;2023-07-13T09:58:09;10.88;;;5.47;;
64907;SDS011;69061;52.236;5.188;2023-07-13T10:00:38;11.70;;;6.05;;
64907;SDS011;69061;52.236;5.188;2023-07-13T10:03:14;11.73;;;6.35;;
64907;SDS011;69061;52.236;5.188;2023-07-13T10:05:45;14.20;;;6.18;;
64907;SDS011;69061;52.236;5.188;2023-07-13T10:08:16;11.45;;;5.22;;
64907;SDS011;69061;52.236;5.188;2023-07-13T10:13:28;9.02;;;5.50;;
64907;SDS011;69061;52.236;5.188;2023-07-13T10:15:59;12.23;;;5.53;;
64907;SDS011;69061;52.236;5.188;2023-07-13T10:18:28;18.67;;;5.47;;
64907;SDS011;69061;52.236;5.188;2023-07-13T10:21:00;11.23;;;5.28;;
64907;SDS011;69061;52.236;5.188;2023-07-13T10:23:38;6.88;;;4.43;;
64907;SDS011;69061;52.236;5.188;2023-07-13T10:26:09;11.10;;;5.50;;
64907;SDS011;69061;52.236;5.188;2023-07-13T10:28:40;14.52;;;5.63;;
64907;SDS011;69061;52.236;5.188;2023-07-13T10:31:10;8.93;;;5.45;;
64907;SDS011;69061;52.236;5.188;2023-07-13T10:33:39;18.92;;;5.68;;
64907;SDS011;69061;52.236;5.188;2023-07-13T10:36:12;10.80;;;5.57;;
64907;SDS011;69061;52.236;5.188;2023-07-13T10:38:44;8.55;;;5.88;;
64907;SDS011;69061;52.236;5.188;2023-07-13T10:41:15;13.25;;;6.43;;
64907;SDS011;69061;52.236;5.188;2023-07-13T10:43:45;10.20;;;6.03;;
64907;SDS011;69061;52.236;5.188;2023-07-13T10:46:17;10.10;;;5.63;;
64907;SDS011;69061;52.236;5.188;2023-07-13T10:48:48;12.13;;;5.38;;
64907;SDS011;69061;52.236;5.188;2023-07-13T10:51:19;9.38;;;5.57;;
64907;SDS011;69061;52.236;5.188;2023-07-13T10:53:47;12.25;;;5.47;;
64907;SDS011;69061;52.236;5.188;2023-07-13T10:56:34;19.13;;;6.43;;
64907;SDS011;69061;52.236;5.188;2023-07-13T10:59:02;14.18;;;5.95;;
64907;SDS011;69061;52.236;5.188;2023-07-13T11:01:41;13.93;;;5.88;;
64907;SDS011;69061;52.236;5.188;2023-07-13T11:04:15;17.17;;;6.30;;
64907;SDS011;69061;52.236;5.188;2023-07-13T11:06:45;9.38;;;5.45;;
64907;SDS011;69061;52.236;5.188;2023-07-13T11:09:24;13.48;;;5.38;;
64907;SDS011;69061;52.236;5.188;2023-07-13T11:11:58;16.10;;;5.55;;
64907;SDS011;69061;52.236;5.188;2023-07-13T11:14:31;9.75;;;5.15;;
64907;SDS011;69061;52.236;5.188;2023-07-13T11:20:08;8.13;;;4.95;;
64907;SDS011;69061;52.236;5.188;2023-07-13T11:22:47;11.07;;;4.85;;
64907;SDS011;69061;52.236;5.188;2023-07-13T11:25:25;14.60;;;5.45;;
64907;SDS011;69061;52.236;5.188;2023-07-13T11:28:04;17.33;;;5.63;;
64907;SDS011;69061;52.236;5.188;2023-07-13T11:30:43;13.52;;;4.65;;
64907;SDS011;69061;52.236;5.188;2023-07-13T11:33:16;9.07;;;4.40;;
64907;SDS011;69061;52.236;5.188;2023-07-13T11:35:48;12.60;;;5.18;;
64907;SDS011;69061;52.236;5.188;2023-07-13T11:38:20;12.18;;;4.70;;
64907;SDS011;69061;52.236;5.188;2023-07-13T11:40:50;12.35;;;4.50;;
64907;SDS011;69061;52.236;5.188;2023-07-13T11:43:19;8.68;;;5.28;;
64907;SDS011;69061;52.236;5.188;2023-07-13T11:45:48;8.38;;;4.82;;
64907;SDS011;69061;52.236;5.188;2023-07-13T11:48:19;6.90;;;4.40;;
64907;SDS011;69061;52.236;5.188;2023-07-13T11:50:54;7.53;;;4.35;;
64907;SDS011;69061;52.236;5.188;2023-07-13T11:53:26;10.45;;;4.47;;
64907;SDS011;69061;52.236;5.188;2023-07-13T11:55:55;8.10;;;4.10;;
64907;SDS011;69061;52.236;5.188;2023-07-13T11:58:23;9.98;;;4.90;;
64907;SDS011;69061;52.236;5.188;2023-07-13T12:00:53;10.25;;;4.20;;
64907;SDS011;69061;52.236;5.188;2023-07-13T12:03:24;10.25;;;4.97;;
64907;SDS011;69061;52.236;5.188;2023-07-13T12:05:58;11.77;;;4.47;;
64907;SDS011;69061;52.236;5.188;2023-07-13T12:08:29;7.38;;;4.43;;
64907;SDS011;69061;52.236;5.188;2023-07-13T12:10:56;9.43;;;4.40;;
64907;SDS011;69061;52.236;5.188;2023-07-13T12:13:26;7.93;;;4.30;;
64907;SDS011;69061;52.236;5.188;2023-07-13T12:15:55;9.95;;;5.00;;
64907;SDS011;69061;52.236;5.188;2023-07-13T12:18:30;13.13;;;4.93;;
64907;SDS011;69061;52.236;5.188;2023-07-13T12:21:00;11.90;;;5.38;;
64907;SDS011;69061;52.236;5.188;2023-07-13T12:23:31;11.90;;;4.95;;
64907;SDS011;69061;52.236;5.188;2023-07-13T12:26:00;7.80;;;4.43;;
64907;SDS011;69061;52.236;5.188;2023-07-13T12:28:31;11.57;;;4.90;;
64907;SDS011;69061;52.236;5.188;2023-07-13T12:31:01;10.63;;;4.55;;
64907;SDS011;69061;52.236;5.188;2023-07-13T12:33:30;11.40;;;4.82;;
64907;SDS011;69061;52.236;5.188;2023-07-13T12:35:59;9.32;;;5.00;;
64907;SDS011;69061;52.236;5.188;2023-07-13T12:38:29;7.10;;;4.00;;
64907;SDS011;69061;52.236;5.188;2023-07-13T12:40:57;11.60;;;5.00;;
64907;SDS011;69061;52.236;5.188;2023-07-13T12:43:25;10.98;;;4.65;;
64907;SDS011;69061;52.236;5.188;2023-07-13T12:45:56;9.30;;;4.53;;
64907;SDS011;69061;52.236;5.188;2023-07-13T12:48:25;6.88;;;4.40;;
64907;SDS011;69061;52.236;5.188;2023-07-13T12:50:53;9.38;;;4.68;;
64907;SDS011;69061;52.236;5.188;2023-07-13T12:53:22;13.70;;;5.53;;
64907;SDS011;69061;52.236;5.188;2023-07-13T12:55:58;11.13;;;5.30;;
64907;SDS011;69061;52.236;5.188;2023-07-13T12:58:28;9.45;;;5.03;;
64907;SDS011;69061;52.236;5.188;2023-07-13T13:00:57;10.32;;;4.70;;
64907;SDS011;69061;52.236;5.188;2023-07-13T13:03:29;10.40;;;5.25;;
64907;SDS011;69061;52.236;5.188;2023-07-13T13:05:59;9.02;;;4.90;;
64907;SDS011;69061;52.236;5.188;2023-07-13T13:08:28;12.23;;;5.43;;
64907;SDS011;69061;52.236;5.188;2023-07-13T13:10:56;15.20;;;5.80;;
64907;SDS011;69061;52.236;5.188;2023-07-13T13:13:24;13.05;;;5.00;;
64907;SDS011;69061;52.236;5.188;2023-07-13T13:15:51;8.45;;;4.88;;
64907;SDS011;69061;52.236;5.188;2023-07-13T13:18:19;11.85;;;5.00;;
64907;SDS011;69061;52.236;5.188;2023-07-13T13:20:47;8.80;;;4.85;;
64907;SDS011;69061;52.236;5.188;2023-07-13T13:23:15;8.80;;;4.50;;
64907;SDS011;69061;52.236;5.188;2023-07-13T13:25:43;9.88;;;5.38;;
64907;SDS011;69061;52.236;5.188;2023-07-13T13:28:14;11.85;;;5.10;;
64907;SDS011;69061;52.236;5.188;2023-07-13T13:30:43;10.85;;;5.53;;
64907;SDS011;69061;52.236;5.188;2023-07-13T13:33:11;9.25;;;4.82;;
64907;SDS011;69061;52.236;5.188;2023-07-13T13:35:40;9.75;;;5.25;;
64907;SDS011;69061;52.236;5.188;2023-07-13T13:38:11;22.80;;;7.10;;
64907;SDS011;69061;52.236;5.188;2023-07-13T13:40:39;12.02;;;5.30;;
64907;SDS011;69061;52.236;5.188;2023-07-13T13:43:15;9.68;;;5.18;;
64907;SDS011;69061;52.236;5.188;2023-07-13T13:45:43;9.32;;;5.30;;
64907;SDS011;69061;52.236;5.188;2023-07-13T13:48:15;11.30;;;5.78;;
64907;SDS011;69061;52.236;5.188;2023-07-13T13:50:44;10.27;;;5.45;;
64907;SDS011;69061;52.236;5.188;2023-07-13T13:53:11;10.85;;;4.53;;
64907;SDS011;69061;52.236;5.188;2023-07-13T13:55:39;8.32;;;4.93;;
64907;SDS011;69061;52.236;5.188;2023-07-13T13:58:07;13.77;;;5.18;;
64907;SDS011;69061;52.236;5.188;2023-07-13T14:00:36;11.35;;;5.45;;
64907;SDS011;69061;52.236;5.188;2023-07-13T14:03:04;14.30;;;5.60;;
64907;SDS011;69061;52.236;5.188;2023-07-13T14:05:32;9.57;;;4.43;;
64907;SDS011;69061;52.236;5.188;2023-07-13T14:07:59;8.73;;;4.85;;
64907;SDS011;69061;52.236;5.188;2023-07-13T14:10:26;14.10;;;4.35;;
64907;SDS011;69061;52.236;5.188;2023-07-13T14:12:54;8.35;;;4.88;;
64907;SDS011;69061;52.236;5.188;2023-07-13T14:15:23;10.00;;;4.65;;
64907;SDS011;69061;52.236;5.188;2023-07-13T14:17:53;8.60;;;4.50;;
64907;SDS011;69061;52.236;5.188;2023-07-13T14:20:23;7.70;;;4.30;;
64907;SDS011;69061;52.236;5.188;2023-07-13T14:22:51;9.27;;;4.90;;
64907;SDS011;69061;52.236;5.188;2023-07-13T14:25:21;15.73;;;5.07;;
64907;SDS011;69061;52.236;5.188;2023-07-13T14:27:49;8.68;;;4.72;;
64907;SDS011;69061;52.236;5.188;2023-07-13T14:30:21;8.75;;;4.65;;
64907;SDS011;69061;52.236;5.188;2023-07-13T14:32:48;7.95;;;4.78;;
64907;SDS011;69061;52.236;5.188;2023-07-13T14:35:18;9.80;;;4.80;;
64907;SDS011;69061;52.236;5.188;2023-07-13T14:37:48;14.77;;;5.07;;
64907;SDS011;69061;52.236;5.188;2023-07-13T14:40:17;10.55;;;4.97;;
64907;SDS011;69061;52.236;5.188;2023-07-13T14:42:48;7.18;;;4.15;;
64907;SDS011;69061;52.236;5.188;2023-07-13T14:45:16;7.75;;;4.25;;
64907;SDS011;69061;52.236;5.188;2023-07-13T14:47:45;10.55;;;5.05;;
64907;SDS011;69061;52.236;5.188;2023-07-13T14:50:14;7.82;;;4.55;;
64907;SDS011;69061;52.236;5.188;2023-07-13T14:52:44;8.65;;;4.25;;
64907;SDS011;69061;52.236;5.188;2023-07-13T14:55:12;7.28;;;4.60;;